sensor_id;sensor_type;location;lat;lon;timestamp;P1;durP1;ratioP1;P2;durP2;ratioP2
8225;SDS011;4154;48.810;9.012;2023-06-05T00:01:45;3.10;;;2.80;;
8225;SDS011;4154;48.810;9.012;2023-06-05T00:04:11;2.53;;;2.30;;
8225;SDS011;4154;48.810;9.012;2023-06-05T00:06:37;3.47;;;2.30;;
8225;SDS011;4154;48.810;9.012;2023-06-05T00:09:03;2.42;;;2.22;;
8225;SDS011;4154;48.810;9.012;2023-06-05T00:11:29;3.25;;;2.20;;
8225;SDS011;4154;48.810;9.012;2023-06-05T00:13:56;2.75;;;2.30;;
8225;SDS011;4154;48.810;9.012;2023-06-05T00:16:21;2.80;;;2.40;;
8225;SDS011;4154;48.810;9.012;2023-06-05T00:18:47;2.72;;;2.20;;
8225;SDS011;4154;48.810;9.012;2023-06-05T00:21:14;2.83;;;2.42;;
8225;SDS011;4154;48.810;9.012;2023-06-05T00:23:40;2.58;;;2.05;;
8225;SDS011;4154;48.810;9.012;2023-06-05T00:26:06;2.53;;;2.10;;
8225;SDS011;4154;48.810;9.012;2023-06-05T00:28:33;5.57;;;2.83;;
8225;SDS011;4154;48.810;9.012;2023-06-05T00:30:59;3.47;;;2.30;;
8225;SDS011;4154;48.810;9.012;2023-06-05T00:33:26;2.22;;;2.03;;
8225;SDS011;4154;48.810;9.012;2023-06-05T00:35:55;2.40;;;2.20;;
8225;SDS011;4154;48.810;9.012;2023-06-05T00:38:21;2.63;;;2.20;;
8225;SDS011;4154;48.810;9.012;2023-06-05T00:40:47;2.67;;;2.30;;
8225;SDS011;4154;48.810;9.012;2023-06-05T00:43:13;3.05;;;2.20;;
8225;SDS011;4154;48.810;9.012;2023-06-05T00:45:39;2.53;;;2.20;;
8225;SDS011;4154;48.810;9.012;2023-06-05T00:48:05;2.90;;;2.30;;
8225;SDS011;4154;48.810;9.012;2023-06-05T00:50:32;2.65;;;2.40;;
8225;SDS011;4154;48.810;9.012;2023-06-05T00:53:02;2.50;;;2.30;;
8225;SDS011;4154;48.810;9.012;2023-06-05T00:55:31;3.47;;;2.50;;
8225;SDS011;4154;48.810;9.012;2023-06-05T00:57:58;3.35;;;2.35;;
8225;SDS011;4154;48.810;9.012;2023-06-05T01:00:26;3.42;;;2.58;;
8225;SDS011;4154;48.810;9.012;2023-06-05T01:02:52;2.80;;;2.30;;
8225;SDS011;4154;48.810;9.012;2023-06-05T01:05:21;3.42;;;2.38;;
8225;SDS011;4154;48.810;9.012;2023-06-05T01:07:49;2.53;;;2.10;;
8225;SDS011;4154;48.810;9.012;2023-06-05T01:10:14;3.10;;;2.40;;
8225;SDS011;4154;48.810;9.012;2023-06-05T01:12:53;2.65;;;2.00;;
8225;SDS011;4154;48.810;9.012;2023-06-05T01:15:42;2.67;;;2.47;;
8225;SDS011;4154;48.810;9.012;2023-06-05T01:18:09;3.03;;;2.17;;
8225;SDS011;4154;48.810;9.012;2023-06-05T01:20:35;3.08;;;2.60;;
8225;SDS011;4154;48.810;9.012;2023-06-05T01:23:04;2.63;;;2.42;;
8225;SDS011;4154;48.810;9.012;2023-06-05T01:25:31;2.72;;;2.40;;
8225;SDS011;4154;48.810;9.012;2023-06-05T01:30:33;2.80;;;2.55;;
8225;SDS011;4154;48.810;9.012;2023-06-05T01:33:26;3.55;;;2.50;;
8225;SDS011;4154;48.810;9.012;2023-06-05T01:35:59;3.47;;;2.33;;
8225;SDS011;4154;48.810;9.012;2023-06-05T01:38:30;3.38;;;2.70;;
8225;SDS011;4154;48.810;9.012;2023-06-05T01:40:58;3.30;;;2.60;;
8225;SDS011;4154;48.810;9.012;2023-06-05T01:43:25;3.88;;;2.70;;
8225;SDS011;4154;48.810;9.012;2023-06-05T01:45:52;2.55;;;2.25;;
8225;SDS011;4154;48.810;9.012;2023-06-05T01:48:21;3.13;;;2.30;;
8225;SDS011;4154;48.810;9.012;2023-06-05T01:50:55;3.13;;;2.47;;
8225;SDS011;4154;48.810;9.012;2023-06-05T01:53:22;3.45;;;2.55;;
8225;SDS011;4154;48.810;9.012;2023-06-05T01:55:48;2.92;;;2.58;;
8225;SDS011;4154;48.810;9.012;2023-06-05T01:58:14;3.78;;;2.40;;
8225;SDS011;4154;48.810;9.012;2023-06-05T02:00:40;3.17;;;2.42;;
8225;SDS011;4154;48.810;9.012;2023-06-05T02:03:07;2.53;;;2.33;;
8225;SDS011;4154;48.810;9.012;2023-06-05T02:05:33;2.17;;;1.95;;
8225;SDS011;4154;48.810;9.012;2023-06-05T02:07:59;2.60;;;2.40;;
8225;SDS011;4154;48.810;9.012;2023-06-05T02:10:30;2.90;;;2.47;;
8225;SDS011;4154;48.810;9.012;2023-06-05T02:12:56;3.30;;;2.20;;
8225;SDS011;4154;48.810;9.012;2023-06-05T02:15:22;3.05;;;2.28;;
8225;SDS011;4154;48.810;9.012;2023-06-05T02:17:49;2.50;;;2.30;;
8225;SDS011;4154;48.810;9.012;2023-06-05T02:20:23;2.55;;;2.33;;
8225;SDS011;4154;48.810;9.012;2023-06-05T02:22:50;2.33;;;2.13;;
8225;SDS011;4154;48.810;9.012;2023-06-05T02:25:17;2.90;;;2.40;;
8225;SDS011;4154;48.810;9.012;2023-06-05T02:27:43;2.73;;;2.40;;
8225;SDS011;4154;48.810;9.012;2023-06-05T02:30:10;2.80;;;2.40;;
8225;SDS011;4154;48.810;9.012;2023-06-05T02:32:36;2.93;;;2.30;;
8225;SDS011;4154;48.810;9.012;2023-06-05T02:35:06;2.45;;;2.20;;
8225;SDS011;4154;48.810;9.012;2023-06-05T02:37:33;2.67;;;2.30;;
8225;SDS011;4154;48.810;9.012;2023-06-05T02:40:03;4.47;;;2.50;;
8225;SDS011;4154;48.810;9.012;2023-06-05T02:42:30;2.90;;;2.23;;
8225;SDS011;4154;48.810;9.012;2023-06-05T02:44:56;3.73;;;2.40;;
8225;SDS011;4154;48.810;9.012;2023-06-05T02:47:22;2.47;;;2.13;;
8225;SDS011;4154;48.810;9.012;2023-06-05T02:49:48;2.57;;;2.37;;
8225;SDS011;4154;48.810;9.012;2023-06-05T02:52:13;2.53;;;2.20;;
8225;SDS011;4154;48.810;9.012;2023-06-05T02:54:40;3.40;;;2.53;;
8225;SDS011;4154;48.810;9.012;2023-06-05T02:57:06;3.10;;;2.33;;
8225;SDS011;4154;48.810;9.012;2023-06-05T02:59:33;2.83;;;2.57;;
8225;SDS011;4154;48.810;9.012;2023-06-05T03:02:04;3.47;;;2.53;;
8225;SDS011;4154;48.810;9.012;2023-06-05T03:04:31;2.87;;;2.50;;
8225;SDS011;4154;48.810;9.012;2023-06-05T03:06:57;3.63;;;2.33;;
8225;SDS011;4154;48.810;9.012;2023-06-05T03:09:24;3.33;;;2.60;;
8225;SDS011;4154;48.810;9.012;2023-06-05T03:11:50;2.87;;;2.10;;
8225;SDS011;4154;48.810;9.012;2023-06-05T03:14:17;3.10;;;2.53;;
8225;SDS011;4154;48.810;9.012;2023-06-05T03:16:43;2.80;;;2.47;;
8225;SDS011;4154;48.810;9.012;2023-06-05T03:19:11;2.47;;;2.27;;
8225;SDS011;4154;48.810;9.012;2023-06-05T03:21:37;3.13;;;2.30;;
8225;SDS011;4154;48.810;9.012;2023-06-05T03:24:09;2.67;;;2.20;;
8225;SDS011;4154;48.810;9.012;2023-06-05T03:26:42;3.50;;;2.20;;
8225;SDS011;4154;48.810;9.012;2023-06-05T03:29:12;2.93;;;2.30;;
8225;SDS011;4154;48.810;9.012;2023-06-05T03:31:37;3.23;;;2.73;;
8225;SDS011;4154;48.810;9.012;2023-06-05T03:34:03;2.90;;;2.53;;
8225;SDS011;4154;48.810;9.012;2023-06-05T03:36:31;3.27;;;2.77;;
8225;SDS011;4154;48.810;9.012;2023-06-05T03:38:59;3.57;;;2.37;;
8225;SDS011;4154;48.810;9.012;2023-06-05T03:41:25;3.47;;;2.33;;
8225;SDS011;4154;48.810;9.012;2023-06-05T03:43:51;2.83;;;2.40;;
8225;SDS011;4154;48.810;9.012;2023-06-05T03:46:18;3.87;;;2.70;;
8225;SDS011;4154;48.810;9.012;2023-06-05T03:48:47;2.67;;;2.43;;
8225;SDS011;4154;48.810;9.012;2023-06-05T03:51:14;3.60;;;2.47;;
8225;SDS011;4154;48.810;9.012;2023-06-05T03:53:43;3.87;;;2.50;;
8225;SDS011;4154;48.810;9.012;2023-06-05T03:56:09;3.37;;;2.63;;
8225;SDS011;4154;48.810;9.012;2023-06-05T03:58:37;2.83;;;2.60;;
8225;SDS011;4154;48.810;9.012;2023-06-05T04:01:04;3.57;;;2.63;;
8225;SDS011;4154;48.810;9.012;2023-06-05T04:03:30;3.00;;;2.70;;
8225;SDS011;4154;48.810;9.012;2023-06-05T04:05:57;3.40;;;2.60;;
8225;SDS011;4154;48.810;9.012;2023-06-05T04:08:23;3.37;;;2.77;;
8225;SDS011;4154;48.810;9.012;2023-06-05T04:10:49;3.50;;;2.50;;
8225;SDS011;4154;48.810;9.012;2023-06-05T04:13:15;5.93;;;2.30;;
8225;SDS011;4154;48.810;9.012;2023-06-05T04:15:41;3.33;;;2.80;;
8225;SDS011;4154;48.810;9.012;2023-06-05T04:18:09;4.90;;;2.93;;
8225;SDS011;4154;48.810;9.012;2023-06-05T04:20:34;3.30;;;2.50;;
8225;SDS011;4154;48.810;9.012;2023-06-05T04:23:00;3.47;;;2.50;;
8225;SDS011;4154;48.810;9.012;2023-06-05T04:25:26;3.53;;;2.53;;
8225;SDS011;4154;48.810;9.012;2023-06-05T04:27:53;4.73;;;2.77;;
8225;SDS011;4154;48.810;9.012;2023-06-05T04:30:21;4.37;;;2.60;;
8225;SDS011;4154;48.810;9.012;2023-06-05T04:32:47;3.30;;;2.77;;
8225;SDS011;4154;48.810;9.012;2023-06-05T04:35:19;3.60;;;2.57;;
8225;SDS011;4154;48.810;9.012;2023-06-05T04:37:46;5.17;;;2.80;;
8225;SDS011;4154;48.810;9.012;2023-06-05T04:40:12;3.73;;;2.60;;
8225;SDS011;4154;48.810;9.012;2023-06-05T04:42:40;3.43;;;2.60;;
8225;SDS011;4154;48.810;9.012;2023-06-05T04:45:06;4.00;;;2.67;;
8225;SDS011;4154;48.810;9.012;2023-06-05T04:47:33;4.43;;;2.90;;
8225;SDS011;4154;48.810;9.012;2023-06-05T04:50:00;2.80;;;2.50;;
8225;SDS011;4154;48.810;9.012;2023-06-05T04:52:29;5.60;;;2.70;;
8225;SDS011;4154;48.810;9.012;2023-06-05T04:55:05;4.37;;;2.73;;
8225;SDS011;4154;48.810;9.012;2023-06-05T04:57:31;3.03;;;2.57;;
8225;SDS011;4154;48.810;9.012;2023-06-05T04:59:57;3.90;;;2.87;;
8225;SDS011;4154;48.810;9.012;2023-06-05T05:02:23;3.13;;;2.83;;
8225;SDS011;4154;48.810;9.012;2023-06-05T05:04:49;4.10;;;2.70;;
8225;SDS011;4154;48.810;9.012;2023-06-05T05:07:15;3.40;;;2.83;;
8225;SDS011;4154;48.810;9.012;2023-06-05T05:09:42;3.20;;;2.53;;
8225;SDS011;4154;48.810;9.012;2023-06-05T05:12:09;4.00;;;2.73;;
8225;SDS011;4154;48.810;9.012;2023-06-05T05:14:35;3.07;;;2.77;;
8225;SDS011;4154;48.810;9.012;2023-06-05T05:17:02;3.97;;;2.27;;
8225;SDS011;4154;48.810;9.012;2023-06-05T05:19:28;3.73;;;2.83;;
8225;SDS011;4154;48.810;9.012;2023-06-05T05:21:54;4.53;;;2.80;;
8225;SDS011;4154;48.810;9.012;2023-06-05T05:24:20;3.83;;;2.70;;
8225;SDS011;4154;48.810;9.012;2023-06-05T05:26:48;4.07;;;2.47;;
8225;SDS011;4154;48.810;9.012;2023-06-05T05:29:17;4.23;;;2.90;;
8225;SDS011;4154;48.810;9.012;2023-06-05T05:31:43;4.37;;;2.80;;
8225;SDS011;4154;48.810;9.012;2023-06-05T05:34:09;3.47;;;2.77;;
8225;SDS011;4154;48.810;9.012;2023-06-05T05:36:35;3.63;;;2.80;;
8225;SDS011;4154;48.810;9.012;2023-06-05T05:39:03;4.43;;;2.67;;
8225;SDS011;4154;48.810;9.012;2023-06-05T05:41:29;3.47;;;3.03;;
8225;SDS011;4154;48.810;9.012;2023-06-05T05:43:55;3.70;;;2.80;;
8225;SDS011;4154;48.810;9.012;2023-06-05T05:46:21;4.10;;;2.60;;
8225;SDS011;4154;48.810;9.012;2023-06-05T05:48:47;3.93;;;2.60;;
8225;SDS011;4154;48.810;9.012;2023-06-05T05:51:13;4.10;;;2.53;;
8225;SDS011;4154;48.810;9.012;2023-06-05T05:53:39;2.75;;;2.33;;
8225;SDS011;4154;48.810;9.012;2023-06-05T05:56:05;3.13;;;2.50;;
8225;SDS011;4154;48.810;9.012;2023-06-05T05:58:31;2.60;;;2.23;;
8225;SDS011;4154;48.810;9.012;2023-06-05T06:00:57;3.38;;;2.45;;
8225;SDS011;4154;48.810;9.012;2023-06-05T06:03:24;4.00;;;2.45;;
8225;SDS011;4154;48.810;9.012;2023-06-05T06:05:51;4.28;;;2.30;;
8225;SDS011;4154;48.810;9.012;2023-06-05T06:08:18;6.03;;;2.65;;
8225;SDS011;4154;48.810;9.012;2023-06-05T06:10:45;2.40;;;2.20;;
8225;SDS011;4154;48.810;9.012;2023-06-05T06:13:11;5.13;;;2.50;;
8225;SDS011;4154;48.810;9.012;2023-06-05T06:15:37;5.60;;;2.40;;
8225;SDS011;4154;48.810;9.012;2023-06-05T06:18:04;2.50;;;2.30;;
8225;SDS011;4154;48.810;9.012;2023-06-05T06:20:31;5.13;;;2.43;;
8225;SDS011;4154;48.810;9.012;2023-06-05T06:22:58;3.03;;;2.35;;
8225;SDS011;4154;48.810;9.012;2023-06-05T06:25:24;3.03;;;2.47;;
8225;SDS011;4154;48.810;9.012;2023-06-05T06:28:00;2.75;;;2.10;;
8225;SDS011;4154;48.810;9.012;2023-06-05T06:30:26;2.67;;;2.40;;
8225;SDS011;4154;48.810;9.012;2023-06-05T06:32:53;3.40;;;2.28;;
8225;SDS011;4154;48.810;9.012;2023-06-05T06:35:25;2.70;;;2.20;;
8225;SDS011;4154;48.810;9.012;2023-06-05T06:37:54;2.67;;;2.33;;
8225;SDS011;4154;48.810;9.012;2023-06-05T06:40:21;3.38;;;2.30;;
8225;SDS011;4154;48.810;9.012;2023-06-05T06:42:47;3.08;;;2.60;;
8225;SDS011;4154;48.810;9.012;2023-06-05T06:45:13;3.35;;;2.22;;
8225;SDS011;4154;48.810;9.012;2023-06-05T06:47:40;2.85;;;2.10;;
8225;SDS011;4154;48.810;9.012;2023-06-05T06:50:06;7.18;;;2.80;;
8225;SDS011;4154;48.810;9.012;2023-06-05T06:52:32;2.92;;;2.25;;
8225;SDS011;4154;48.810;9.012;2023-06-05T06:54:58;3.40;;;2.72;;
8225;SDS011;4154;48.810;9.012;2023-06-05T06:57:24;5.65;;;2.88;;
8225;SDS011;4154;48.810;9.012;2023-06-05T06:59:50;3.13;;;2.58;;
8225;SDS011;4154;48.810;9.012;2023-06-05T07:02:18;3.40;;;2.60;;
8225;SDS011;4154;48.810;9.012;2023-06-05T07:04:46;3.10;;;2.65;;
8225;SDS011;4154;48.810;9.012;2023-06-05T07:07:13;4.07;;;3.42;;
8225;SDS011;4154;48.810;9.012;2023-06-05T07:09:42;10.80;;;9.70;;
8225;SDS011;4154;48.810;9.012;2023-06-05T07:12:12;3.78;;;2.40;;
8225;SDS011;4154;48.810;9.012;2023-06-05T07:14:41;2.92;;;2.63;;
8225;SDS011;4154;48.810;9.012;2023-06-05T07:17:07;5.20;;;2.70;;
8225;SDS011;4154;48.810;9.012;2023-06-05T07:19:34;3.10;;;2.80;;
8225;SDS011;4154;48.810;9.012;2023-06-05T07:22:03;3.50;;;2.83;;
8225;SDS011;4154;48.810;9.012;2023-06-05T07:24:30;4.07;;;2.70;;
8225;SDS011;4154;48.810;9.012;2023-06-05T07:26:59;3.30;;;2.97;;
8225;SDS011;4154;48.810;9.012;2023-06-05T07:29:27;3.25;;;2.60;;
8225;SDS011;4154;48.810;9.012;2023-06-05T07:31:54;3.75;;;2.60;;
8225;SDS011;4154;48.810;9.012;2023-06-05T07:34:22;3.83;;;2.90;;
8225;SDS011;4154;48.810;9.012;2023-06-05T07:36:49;3.70;;;2.95;;
8225;SDS011;4154;48.810;9.012;2023-06-05T07:39:16;4.03;;;2.90;;
8225;SDS011;4154;48.810;9.012;2023-06-05T07:41:44;3.88;;;3.08;;
8225;SDS011;4154;48.810;9.012;2023-06-05T07:44:11;2.95;;;2.65;;
8225;SDS011;4154;48.810;9.012;2023-06-05T07:46:40;4.05;;;2.85;;
8225;SDS011;4154;48.810;9.012;2023-06-05T07:49:07;3.08;;;2.80;;
8225;SDS011;4154;48.810;9.012;2023-06-05T07:51:34;6.78;;;2.97;;
8225;SDS011;4154;48.810;9.012;2023-06-05T07:54:02;3.40;;;3.08;;
8225;SDS011;4154;48.810;9.012;2023-06-05T07:56:32;4.93;;;2.90;;
8225;SDS011;4154;48.810;9.012;2023-06-05T07:58:59;4.35;;;3.22;;
8225;SDS011;4154;48.810;9.012;2023-06-05T08:01:27;3.75;;;3.10;;
8225;SDS011;4154;48.810;9.012;2023-06-05T08:03:54;5.22;;;2.90;;
8225;SDS011;4154;48.810;9.012;2023-06-05T08:06:20;4.50;;;2.88;;
8225;SDS011;4154;48.810;9.012;2023-06-05T08:08:46;4.00;;;3.33;;
8225;SDS011;4154;48.810;9.012;2023-06-05T08:11:12;4.63;;;3.15;;
8225;SDS011;4154;48.810;9.012;2023-06-05T08:13:38;4.35;;;3.00;;
8225;SDS011;4154;48.810;9.012;2023-06-05T08:16:05;3.67;;;3.17;;
8225;SDS011;4154;48.810;9.012;2023-06-05T08:18:31;5.22;;;3.17;;
8225;SDS011;4154;48.810;9.012;2023-06-05T08:20:57;4.57;;;3.13;;
8225;SDS011;4154;48.810;9.012;2023-06-05T08:23:23;6.45;;;3.75;;
8225;SDS011;4154;48.810;9.012;2023-06-05T08:25:51;5.50;;;3.03;;
8225;SDS011;4154;48.810;9.012;2023-06-05T08:28:17;4.80;;;3.65;;
8225;SDS011;4154;48.810;9.012;2023-06-05T08:30:43;6.25;;;4.10;;
8225;SDS011;4154;48.810;9.012;2023-06-05T08:33:09;4.00;;;3.30;;
8225;SDS011;4154;48.810;9.012;2023-06-05T08:35:35;4.72;;;3.88;;
8225;SDS011;4154;48.810;9.012;2023-06-05T08:38:04;5.25;;;4.50;;
8225;SDS011;4154;48.810;9.012;2023-06-05T08:40:30;4.80;;;4.40;;
8225;SDS011;4154;48.810;9.012;2023-06-05T08:42:59;6.78;;;4.07;;
8225;SDS011;4154;48.810;9.012;2023-06-05T08:45:26;6.07;;;4.38;;
8225;SDS011;4154;48.810;9.012;2023-06-05T08:47:52;6.07;;;4.50;;
8225;SDS011;4154;48.810;9.012;2023-06-05T08:50:21;5.07;;;4.28;;
8225;SDS011;4154;48.810;9.012;2023-06-05T08:52:48;4.65;;;4.20;;
8225;SDS011;4154;48.810;9.012;2023-06-05T08:55:15;4.93;;;4.53;;
8225;SDS011;4154;48.810;9.012;2023-06-05T08:57:42;5.25;;;4.75;;
8225;SDS011;4154;48.810;9.012;2023-06-05T09:00:09;8.55;;;4.50;;
8225;SDS011;4154;48.810;9.012;2023-06-05T09:02:39;6.90;;;4.63;;
8225;SDS011;4154;48.810;9.012;2023-06-05T09:05:12;5.10;;;4.28;;
8225;SDS011;4154;48.810;9.012;2023-06-05T09:07:39;5.53;;;4.65;;
8225;SDS011;4154;48.810;9.012;2023-06-05T09:10:06;5.07;;;4.47;;
8225;SDS011;4154;48.810;9.012;2023-06-05T09:13:07;6.47;;;4.65;;
8225;SDS011;4154;48.810;9.012;2023-06-05T09:15:33;5.72;;;4.40;;
8225;SDS011;4154;48.810;9.012;2023-06-05T09:18:03;5.05;;;4.20;;
8225;SDS011;4154;48.810;9.012;2023-06-05T09:20:33;6.13;;;4.60;;
8225;SDS011;4154;48.810;9.012;2023-06-05T09:23:01;4.93;;;4.40;;
8225;SDS011;4154;48.810;9.012;2023-06-05T09:25:44;5.07;;;4.57;;
8225;SDS011;4154;48.810;9.012;2023-06-05T09:28:15;6.68;;;4.80;;
8225;SDS011;4154;48.810;9.012;2023-06-05T09:30:54;5.93;;;4.47;;
8225;SDS011;4154;48.810;9.012;2023-06-05T09:33:24;5.72;;;4.47;;
8225;SDS011;4154;48.810;9.012;2023-06-05T09:38:30;7.57;;;4.82;;
8225;SDS011;4154;48.810;9.012;2023-06-05T09:41:03;5.03;;;4.60;;
8225;SDS011;4154;48.810;9.012;2023-06-05T09:43:45;5.45;;;4.50;;
8225;SDS011;4154;48.810;9.012;2023-06-05T09:46:12;4.82;;;4.35;;
8225;SDS011;4154;48.810;9.012;2023-06-05T09:48:41;5.82;;;4.57;;
8225;SDS011;4154;48.810;9.012;2023-06-05T09:51:11;11.00;;;4.68;;
8225;SDS011;4154;48.810;9.012;2023-06-05T09:53:42;5.43;;;4.30;;
8225;SDS011;4154;48.810;9.012;2023-06-05T09:56:17;5.78;;;4.50;;
8225;SDS011;4154;48.810;9.012;2023-06-05T09:58:47;7.78;;;4.20;;
8225;SDS011;4154;48.810;9.012;2023-06-05T10:01:18;7.18;;;5.00;;
8225;SDS011;4154;48.810;9.012;2023-06-05T10:03:54;4.75;;;4.35;;
8225;SDS011;4154;48.810;9.012;2023-06-05T10:09:10;7.65;;;4.60;;
8225;SDS011;4154;48.810;9.012;2023-06-05T10:11:38;4.97;;;4.47;;
8225;SDS011;4154;48.810;9.012;2023-06-05T10:14:11;4.90;;;4.10;;
8225;SDS011;4154;48.810;9.012;2023-06-05T10:16:44;6.28;;;4.50;;
8225;SDS011;4154;48.810;9.012;2023-06-05T10:19:19;4.40;;;4.00;;
8225;SDS011;4154;48.810;9.012;2023-06-05T10:21:49;4.20;;;3.80;;
8225;SDS011;4154;48.810;9.012;2023-06-05T10:24:18;5.18;;;3.95;;
8225;SDS011;4154;48.810;9.012;2023-06-05T10:33:11;5.05;;;3.72;;
8225;SDS011;4154;48.810;9.012;2023-06-05T10:39:47;5.18;;;4.00;;
8225;SDS011;4154;48.810;9.012;2023-06-05T10:42:22;4.82;;;4.28;;
8225;SDS011;4154;48.810;9.012;2023-06-05T10:44:52;5.20;;;4.32;;
8225;SDS011;4154;48.810;9.012;2023-06-05T10:52:42;6.20;;;4.05;;
8225;SDS011;4154;48.810;9.012;2023-06-05T10:55:09;5.90;;;4.15;;
8225;SDS011;4154;48.810;9.012;2023-06-05T11:00:34;4.25;;;3.80;;
8225;SDS011;4154;48.810;9.012;2023-06-05T11:06:18;4.38;;;3.97;;
8225;SDS011;4154;48.810;9.012;2023-06-05T11:09:05;5.57;;;3.72;;
8225;SDS011;4154;48.810;9.012;2023-06-05T11:14:44;5.07;;;3.45;;
8225;SDS011;4154;48.810;9.012;2023-06-05T11:17:34;4.20;;;3.40;;
8225;SDS011;4154;48.810;9.012;2023-06-05T11:20:04;4.20;;;3.80;;
8225;SDS011;4154;48.810;9.012;2023-06-05T11:27:58;3.90;;;3.50;;
8225;SDS011;4154;48.810;9.012;2023-06-05T11:30:30;4.43;;;3.50;;
8225;SDS011;4154;48.810;9.012;2023-06-05T11:33:07;3.78;;;3.38;;
8225;SDS011;4154;48.810;9.012;2023-06-05T11:35:44;4.40;;;3.33;;
8225;SDS011;4154;48.810;9.012;2023-06-05T11:40:40;5.63;;;3.28;;
8225;SDS011;4154;48.810;9.012;2023-06-05T11:43:10;3.65;;;3.33;;
8225;SDS011;4154;48.810;9.012;2023-06-05T11:45:38;3.80;;;2.92;;
8225;SDS011;4154;48.810;9.012;2023-06-05T11:50:36;4.45;;;3.28;;
8225;SDS011;4154;48.810;9.012;2023-06-05T11:53:20;4.38;;;3.33;;
8225;SDS011;4154;48.810;9.012;2023-06-05T11:55:47;3.67;;;3.08;;
8225;SDS011;4154;48.810;9.012;2023-06-05T11:58:23;5.35;;;3.30;;
8225;SDS011;4154;48.810;9.012;2023-06-05T12:01:06;3.45;;;3.15;;
8225;SDS011;4154;48.810;9.012;2023-06-05T12:03:39;3.50;;;3.20;;
8225;SDS011;4154;48.810;9.012;2023-06-05T12:06:09;3.58;;;3.20;;
8225;SDS011;4154;48.810;9.012;2023-06-05T12:08:39;4.43;;;3.20;;
8225;SDS011;4154;48.810;9.012;2023-06-05T12:11:20;3.75;;;3.45;;
8225;SDS011;4154;48.810;9.012;2023-06-05T12:13:52;4.40;;;3.20;;
8225;SDS011;4154;48.810;9.012;2023-06-05T12:16:31;4.82;;;3.33;;
8225;SDS011;4154;48.810;9.012;2023-06-05T12:19:10;3.70;;;3.40;;
8225;SDS011;4154;48.810;9.012;2023-06-05T12:21:49;3.88;;;3.30;;
8225;SDS011;4154;48.810;9.012;2023-06-05T12:24:24;3.65;;;3.15;;
8225;SDS011;4154;48.810;9.012;2023-06-05T12:26:52;4.72;;;3.22;;
8225;SDS011;4154;48.810;9.012;2023-06-05T12:29:21;4.53;;;3.25;;
8225;SDS011;4154;48.810;9.012;2023-06-05T12:31:55;4.57;;;3.20;;
8225;SDS011;4154;48.810;9.012;2023-06-05T12:37:27;4.65;;;3.50;;
8225;SDS011;4154;48.810;9.012;2023-06-05T12:39:59;3.55;;;3.10;;
8225;SDS011;4154;48.810;9.012;2023-06-05T12:42:26;3.30;;;3.00;;
8225;SDS011;4154;48.810;9.012;2023-06-05T12:44:53;3.50;;;3.20;;
8225;SDS011;4154;48.810;9.012;2023-06-05T12:47:19;3.80;;;3.50;;
8225;SDS011;4154;48.810;9.012;2023-06-05T12:49:46;3.40;;;3.10;;
8225;SDS011;4154;48.810;9.012;2023-06-05T12:52:12;4.40;;;3.40;;
8225;SDS011;4154;48.810;9.012;2023-06-05T12:54:38;5.30;;;3.63;;
8225;SDS011;4154;48.810;9.012;2023-06-05T12:57:05;3.72;;;3.33;;
8225;SDS011;4154;48.810;9.012;2023-06-05T12:59:32;4.72;;;3.10;;
8225;SDS011;4154;48.810;9.012;2023-06-05T13:01:58;4.13;;;3.53;;
8225;SDS011;4154;48.810;9.012;2023-06-05T13:04:25;8.35;;;3.47;;
8225;SDS011;4154;48.810;9.012;2023-06-05T13:06:51;5.32;;;3.30;;
8225;SDS011;4154;48.810;9.012;2023-06-05T13:09:19;5.65;;;3.50;;
8225;SDS011;4154;48.810;9.012;2023-06-05T13:11:45;5.32;;;3.70;;
8225;SDS011;4154;48.810;9.012;2023-06-05T13:14:12;4.53;;;3.53;;
8225;SDS011;4154;48.810;9.012;2023-06-05T13:16:38;4.18;;;3.60;;
8225;SDS011;4154;48.810;9.012;2023-06-05T13:19:04;4.65;;;3.50;;
8225;SDS011;4154;48.810;9.012;2023-06-05T13:21:30;3.90;;;3.47;;
8225;SDS011;4154;48.810;9.012;2023-06-05T13:23:56;4.07;;;3.50;;
8225;SDS011;4154;48.810;9.012;2023-06-05T13:26:22;6.88;;;4.03;;
8225;SDS011;4154;48.810;9.012;2023-06-05T13:28:48;5.13;;;3.22;;
8225;SDS011;4154;48.810;9.012;2023-06-05T13:31:15;4.88;;;3.20;;
8225;SDS011;4154;48.810;9.012;2023-06-05T13:33:42;4.50;;;3.92;;
8225;SDS011;4154;48.810;9.012;2023-06-05T13:36:08;4.60;;;3.50;;
8225;SDS011;4154;48.810;9.012;2023-06-05T13:38:34;6.75;;;3.67;;
8225;SDS011;4154;48.810;9.012;2023-06-05T13:41:03;5.78;;;3.90;;
8225;SDS011;4154;48.810;9.012;2023-06-05T13:43:29;5.75;;;3.67;;
8225;SDS011;4154;48.810;9.012;2023-06-05T13:45:57;4.63;;;3.35;;
8225;SDS011;4154;48.810;9.012;2023-06-05T13:48:23;5.38;;;3.55;;
8225;SDS011;4154;48.810;9.012;2023-06-05T13:50:49;4.22;;;3.47;;
8225;SDS011;4154;48.810;9.012;2023-06-05T13:53:15;5.75;;;3.65;;
8225;SDS011;4154;48.810;9.012;2023-06-05T13:55:42;4.65;;;3.80;;
8225;SDS011;4154;48.810;9.012;2023-06-05T13:58:08;5.15;;;3.67;;
8225;SDS011;4154;48.810;9.012;2023-06-05T14:00:34;4.20;;;3.80;;
8225;SDS011;4154;48.810;9.012;2023-06-05T14:03:01;4.25;;;3.85;;
8225;SDS011;4154;48.810;9.012;2023-06-05T14:05:27;4.18;;;3.60;;
8225;SDS011;4154;48.810;9.012;2023-06-05T14:07:54;4.22;;;3.50;;
8225;SDS011;4154;48.810;9.012;2023-06-05T14:10:22;4.10;;;3.70;;
8225;SDS011;4154;48.810;9.012;2023-06-05T14:12:50;5.75;;;3.70;;
8225;SDS011;4154;48.810;9.012;2023-06-05T14:15:17;4.18;;;3.70;;
8225;SDS011;4154;48.810;9.012;2023-06-05T14:17:45;3.95;;;3.53;;
8225;SDS011;4154;48.810;9.012;2023-06-05T14:20:12;4.00;;;3.58;;
8225;SDS011;4154;48.810;9.012;2023-06-05T14:22:38;4.10;;;3.75;;
8225;SDS011;4154;48.810;9.012;2023-06-05T14:25:05;4.32;;;3.47;;
8225;SDS011;4154;48.810;9.012;2023-06-05T14:27:31;4.40;;;3.50;;
8225;SDS011;4154;48.810;9.012;2023-06-05T14:29:57;6.35;;;3.90;;
8225;SDS011;4154;48.810;9.012;2023-06-05T14:32:23;6.45;;;4.07;;
8225;SDS011;4154;48.810;9.012;2023-06-05T14:34:49;4.43;;;3.58;;
8225;SDS011;4154;48.810;9.012;2023-06-05T14:37:15;3.65;;;3.35;;
8225;SDS011;4154;48.810;9.012;2023-06-05T14:39:42;5.75;;;3.60;;
8225;SDS011;4154;48.810;9.012;2023-06-05T14:42:08;5.40;;;3.63;;
8225;SDS011;4154;48.810;9.012;2023-06-05T14:44:34;8.00;;;3.83;;
8225;SDS011;4154;48.810;9.012;2023-06-05T14:47:00;6.82;;;3.92;;
8225;SDS011;4154;48.810;9.012;2023-06-05T14:49:26;4.57;;;3.65;;
8225;SDS011;4154;48.810;9.012;2023-06-05T14:51:53;4.03;;;3.53;;
8225;SDS011;4154;48.810;9.012;2023-06-05T14:54:19;4.35;;;3.45;;
8225;SDS011;4154;48.810;9.012;2023-06-05T14:56:45;6.15;;;3.45;;
8225;SDS011;4154;48.810;9.012;2023-06-05T14:59:12;4.82;;;3.60;;
8225;SDS011;4154;48.810;9.012;2023-06-05T15:01:39;3.90;;;3.50;;
8225;SDS011;4154;48.810;9.012;2023-06-05T15:04:05;5.97;;;3.47;;
8225;SDS011;4154;48.810;9.012;2023-06-05T15:06:31;3.50;;;3.22;;
8225;SDS011;4154;48.810;9.012;2023-06-05T15:08:57;4.60;;;3.40;;
8225;SDS011;4154;48.810;9.012;2023-06-05T15:11:23;4.65;;;3.45;;
8225;SDS011;4154;48.810;9.012;2023-06-05T15:13:49;3.90;;;3.22;;
8225;SDS011;4154;48.810;9.012;2023-06-05T15:16:15;3.83;;;3.50;;
8225;SDS011;4154;48.810;9.012;2023-06-05T15:18:42;4.45;;;3.35;;
8225;SDS011;4154;48.810;9.012;2023-06-05T15:21:08;3.63;;;2.90;;
8225;SDS011;4154;48.810;9.012;2023-06-05T15:23:34;4.13;;;3.40;;
8225;SDS011;4154;48.810;9.012;2023-06-05T15:26:00;3.50;;;3.20;;
8225;SDS011;4154;48.810;9.012;2023-06-05T15:28:26;4.07;;;3.58;;
8225;SDS011;4154;48.810;9.012;2023-06-05T15:30:52;4.78;;;3.63;;
8225;SDS011;4154;48.810;9.012;2023-06-05T15:33:18;3.78;;;3.22;;
8225;SDS011;4154;48.810;9.012;2023-06-05T15:35:45;4.50;;;3.20;;
8225;SDS011;4154;48.810;9.012;2023-06-05T15:38:12;3.53;;;3.22;;
8225;SDS011;4154;48.810;9.012;2023-06-05T15:40:38;3.42;;;3.13;;
8225;SDS011;4154;48.810;9.012;2023-06-05T15:45:30;7.90;;;3.55;;
8225;SDS011;4154;48.810;9.012;2023-06-05T15:47:57;4.95;;;3.08;;
8225;SDS011;4154;48.810;9.012;2023-06-05T15:50:23;4.10;;;3.03;;
8225;SDS011;4154;48.810;9.012;2023-06-05T15:52:50;3.40;;;3.10;;
8225;SDS011;4154;48.810;9.012;2023-06-05T15:55:16;5.70;;;3.35;;
8225;SDS011;4154;48.810;9.012;2023-06-05T15:57:42;3.78;;;3.03;;
8225;SDS011;4154;48.810;9.012;2023-06-05T16:00:10;3.40;;;3.10;;
8225;SDS011;4154;48.810;9.012;2023-06-05T16:02:37;3.55;;;3.00;;
8225;SDS011;4154;48.810;9.012;2023-06-05T16:05:03;3.00;;;2.80;;
8225;SDS011;4154;48.810;9.012;2023-06-05T16:07:31;3.78;;;2.90;;
8225;SDS011;4154;48.810;9.012;2023-06-05T16:09:57;3.28;;;2.97;;